sensor_id;sensor_type;location;lat;lon;timestamp;P1;durP1;ratioP1;P2;durP2;ratioP2
60641;SDS011;46837;52.446;-1.930;2024-02-16T00:00:08;1.80;;;1.68;;
60641;SDS011;46837;52.446;-1.930;2024-02-16T00:01:07;2.18;;;1.62;;
60641;SDS011;46837;52.446;-1.930;2024-02-16T00:02:07;3.46;;;2.02;;
60641;SDS011;46837;52.446;-1.930;2024-02-16T00:03:07;2.42;;;1.76;;
60641;SDS011;46837;52.446;-1.930;2024-02-16T00:04:07;1.42;;;1.30;;
60641;SDS011;46837;52.446;-1.930;2024-02-16T00:05:07;7.16;;;1.48;;
60641;SDS011;46837;52.446;-1.930;2024-02-16T00:06:07;2.98;;;1.54;;
60641;SDS011;46837;52.446;-1.930;2024-02-16T00:07:07;3.16;;;1.96;;
60641;SDS011;46837;52.446;-1.930;2024-02-16T00:08:07;2.12;;;1.88;;
60641;SDS011;46837;52.446;-1.930;2024-02-16T00:09:07;2.50;;;1.70;;
60641;SDS011;46837;52.446;-1.930;2024-02-16T00:10:07;3.84;;;1.86;;
60641;SDS011;46837;52.446;-1.930;2024-02-16T00:11:07;2.44;;;2.24;;
60641;SDS011;46837;52.446;-1.930;2024-02-16T00:12:07;2.90;;;2.60;;
60641;SDS011;46837;52.446;-1.930;2024-02-16T00:13:07;4.26;;;2.50;;
60641;SDS011;46837;52.446;-1.930;2024-02-16T00:14:07;2.58;;;2.00;;
60641;SDS011;46837;52.446;-1.930;2024-02-16T00:15:07;5.20;;;3.88;;
60641;SDS011;46837;52.446;-1.930;2024-02-16T00:16:07;6.84;;;4.60;;
60641;SDS011;46837;52.446;-1.930;2024-02-16T00:17:07;3.94;;;3.10;;
60641;SDS011;46837;52.446;-1.930;2024-02-16T00:18:07;5.26;;;3.34;;
60641;SDS011;46837;52.446;-1.930;2024-02-16T00:19:07;4.52;;;1.94;;
60641;SDS011;46837;52.446;-1.930;2024-02-16T00:20:08;2.76;;;2.44;;
60641;SDS011;46837;52.446;-1.930;2024-02-16T00:21:07;2.24;;;1.96;;
60641;SDS011;46837;52.446;-1.930;2024-02-16T00:22:08;2.86;;;1.58;;
60641;SDS011;46837;52.446;-1.930;2024-02-16T00:23:07;2.42;;;1.16;;
60641;SDS011;46837;52.446;-1.930;2024-02-16T00:24:07;1.42;;;1.18;;
60641;SDS011;46837;52.446;-1.930;2024-02-16T00:25:07;3.70;;;2.04;;
60641;SDS011;46837;52.446;-1.930;2024-02-16T00:26:08;4.04;;;1.36;;
60641;SDS011;46837;52.446;-1.930;2024-02-16T00:27:07;2.74;;;1.46;;
60641;SDS011;46837;52.446;-1.930;2024-02-16T00:28:07;1.38;;;1.28;;
60641;SDS011;46837;52.446;-1.930;2024-02-16T00:29:07;3.56;;;1.08;;
60641;SDS011;46837;52.446;-1.930;2024-02-16T00:30:07;4.46;;;1.14;;
60641;SDS011;46837;52.446;-1.930;2024-02-16T00:31:07;1.82;;;1.26;;
60641;SDS011;46837;52.446;-1.930;2024-02-16T00:32:07;2.08;;;1.66;;
60641;SDS011;46837;52.446;-1.930;2024-02-16T00:33:07;2.54;;;1.34;;
60641;SDS011;46837;52.446;-1.930;2024-02-16T00:34:07;5.38;;;1.48;;
60641;SDS011;46837;52.446;-1.930;2024-02-16T00:35:07;1.68;;;1.32;;
60641;SDS011;46837;52.446;-1.930;2024-02-16T00:36:07;3.50;;;1.32;;
60641;SDS011;46837;52.446;-1.930;2024-02-16T00:37:10;1.22;;;1.12;;
60641;SDS011;46837;52.446;-1.930;2024-02-16T00:38:07;3.58;;;1.34;;
60641;SDS011;46837;52.446;-1.930;2024-02-16T00:39:07;4.10;;;1.56;;
60641;SDS011;46837;52.446;-1.930;2024-02-16T00:40:07;1.40;;;1.30;;
60641;SDS011;46837;52.446;-1.930;2024-02-16T00:41:07;5.68;;;1.20;;
60641;SDS011;46837;52.446;-1.930;2024-02-16T00:42:07;1.42;;;0.98;;
60641;SDS011;46837;52.446;-1.930;2024-02-16T00:43:07;3.46;;;1.70;;
60641;SDS011;46837;52.446;-1.930;2024-02-16T00:44:07;2.44;;;1.18;;
60641;SDS011;46837;52.446;-1.930;2024-02-16T00:45:07;1.32;;;0.92;;
60641;SDS011;46837;52.446;-1.930;2024-02-16T00:46:07;2.42;;;1.56;;
60641;SDS011;46837;52.446;-1.930;2024-02-16T00:47:07;1.40;;;1.04;;
60641;SDS011;46837;52.446;-1.930;2024-02-16T00:48:07;5.84;;;1.52;;
60641;SDS011;46837;52.446;-1.930;2024-02-16T00:49:07;1.54;;;1.38;;
60641;SDS011;46837;52.446;-1.930;2024-02-16T00:50:09;1.20;;;1.10;;
60641;SDS011;46837;52.446;-1.930;2024-02-16T00:51:07;1.92;;;1.40;;
60641;SDS011;46837;52.446;-1.930;2024-02-16T00:52:07;2.30;;;1.98;;
60641;SDS011;46837;52.446;-1.930;2024-02-16T00:53:07;3.24;;;1.74;;
60641;SDS011;46837;52.446;-1.930;2024-02-16T00:54:07;2.26;;;1.58;;
60641;SDS011;46837;52.446;-1.930;2024-02-16T00:55:07;5.88;;;3.24;;
60641;SDS011;46837;52.446;-1.930;2024-02-16T00:56:07;2.16;;;1.66;;
60641;SDS011;46837;52.446;-1.930;2024-02-16T00:57:07;4.02;;;2.16;;
60641;SDS011;46837;52.446;-1.930;2024-02-16T00:58:07;3.16;;;1.64;;
60641;SDS011;46837;52.446;-1.930;2024-02-16T00:59:07;5.08;;;1.52;;
60641;SDS011;46837;52.446;-1.930;2024-02-16T01:00:07;3.96;;;1.52;;
60641;SDS011;46837;52.446;-1.930;2024-02-16T01:01:08;2.50;;;1.58;;
60641;SDS011;46837;52.446;-1.930;2024-02-16T01:02:07;5.12;;;2.08;;
60641;SDS011;46837;52.446;-1.930;2024-02-16T01:03:07;3.12;;;1.80;;
60641;SDS011;46837;52.446;-1.930;2024-02-16T01:04:07;1.56;;;1.44;;
60641;SDS011;46837;52.446;-1.930;2024-02-16T01:05:07;2.98;;;1.62;;
60641;SDS011;46837;52.446;-1.930;2024-02-16T01:06:07;6.40;;;1.26;;
60641;SDS011;46837;52.446;-1.930;2024-02-16T01:07:07;2.14;;;1.62;;
60641;SDS011;46837;52.446;-1.930;2024-02-16T01:08:07;1.84;;;1.40;;
60641;SDS011;46837;52.446;-1.930;2024-02-16T01:09:07;2.20;;;2.00;;
60641;SDS011;46837;52.446;-1.930;2024-02-16T01:10:07;2.92;;;1.90;;
60641;SDS011;46837;52.446;-1.930;2024-02-16T01:11:07;2.24;;;1.60;;
60641;SDS011;46837;52.446;-1.930;2024-02-16T01:12:07;3.64;;;2.06;;
60641;SDS011;46837;52.446;-1.930;2024-02-16T01:13:07;1.80;;;1.66;;
60641;SDS011;46837;52.446;-1.930;2024-02-16T01:14:07;2.20;;;2.10;;
60641;SDS011;46837;52.446;-1.930;2024-02-16T01:15:07;3.20;;;2.50;;
60641;SDS011;46837;52.446;-1.930;2024-02-16T01:16:07;3.46;;;2.02;;
60641;SDS011;46837;52.446;-1.930;2024-02-16T01:17:07;3.80;;;2.74;;
60641;SDS011;46837;52.446;-1.930;2024-02-16T01:18:07;3.94;;;2.30;;
60641;SDS011;46837;52.446;-1.930;2024-02-16T01:19:07;3.38;;;2.78;;
60641;SDS011;46837;52.446;-1.930;2024-02-16T01:20:07;3.48;;;2.26;;
60641;SDS011;46837;52.446;-1.930;2024-02-16T01:21:07;3.04;;;1.94;;
60641;SDS011;46837;52.446;-1.930;2024-02-16T01:22:07;3.96;;;2.34;;
60641;SDS011;46837;52.446;-1.930;2024-02-16T01:23:07;3.04;;;1.96;;
60641;SDS011;46837;52.446;-1.930;2024-02-16T01:24:07;4.88;;;2.84;;
60641;SDS011;46837;52.446;-1.930;2024-02-16T01:25:07;3.18;;;2.52;;
60641;SDS011;46837;52.446;-1.930;2024-02-16T01:26:07;2.46;;;2.22;;
60641;SDS011;46837;52.446;-1.930;2024-02-16T01:27:07;2.78;;;2.20;;
60641;SDS011;46837;52.446;-1.930;2024-02-16T01:28:07;2.14;;;1.76;;
60641;SDS011;46837;52.446;-1.930;2024-02-16T01:29:07;6.22;;;2.42;;
60641;SDS011;46837;52.446;-1.930;2024-02-16T01:30:07;3.70;;;2.72;;
60641;SDS011;46837;52.446;-1.930;2024-02-16T01:31:07;4.16;;;2.18;;
60641;SDS011;46837;52.446;-1.930;2024-02-16T01:32:07;3.06;;;2.08;;
60641;SDS011;46837;52.446;-1.930;2024-02-16T01:33:07;4.90;;;1.92;;
60641;SDS011;46837;52.446;-1.930;2024-02-16T01:34:07;2.24;;;1.36;;
60641;SDS011;46837;52.446;-1.930;2024-02-16T01:35:07;2.48;;;1.50;;
60641;SDS011;46837;52.446;-1.930;2024-02-16T01:36:07;5.40;;;1.78;;
60641;SDS011;46837;52.446;-1.930;2024-02-16T01:37:07;2.06;;;1.74;;
60641;SDS011;46837;52.446;-1.930;2024-02-16T01:38:07;2.24;;;1.42;;
60641;SDS011;46837;52.446;-1.930;2024-02-16T01:39:07;1.36;;;1.26;;
60641;SDS011;46837;52.446;-1.930;2024-02-16T01:40:08;1.24;;;1.14;;
60641;SDS011;46837;52.446;-1.930;2024-02-16T01:41:08;3.78;;;1.62;;
60641;SDS011;46837;52.446;-1.930;2024-02-16T01:42:07;4.96;;;1.86;;
60641;SDS011;46837;52.446;-1.930;2024-02-16T01:43:07;2.74;;;1.32;;
60641;SDS011;46837;52.446;-1.930;2024-02-16T01:44:07;3.18;;;1.66;;
60641;SDS011;46837;52.446;-1.930;2024-02-16T01:45:07;2.78;;;1.36;;
60641;SDS011;46837;52.446;-1.930;2024-02-16T01:46:07;3.02;;;1.24;;
60641;SDS011;46837;52.446;-1.930;2024-02-16T01:47:07;6.04;;;2.42;;
60641;SDS011;46837;52.446;-1.930;2024-02-16T01:48:07;2.36;;;1.40;;
60641;SDS011;46837;52.446;-1.930;2024-02-16T01:49:07;5.00;;;1.70;;
60641;SDS011;46837;52.446;-1.930;2024-02-16T01:50:07;5.54;;;2.04;;
60641;SDS011;46837;52.446;-1.930;2024-02-16T01:51:08;1.66;;;1.06;;
60641;SDS011;46837;52.446;-1.930;2024-02-16T01:52:07;3.16;;;1.54;;
60641;SDS011;46837;52.446;-1.930;2024-02-16T01:53:07;2.04;;;1.08;;
60641;SDS011;46837;52.446;-1.930;2024-02-16T01:54:07;2.62;;;1.40;;
60641;SDS011;46837;52.446;-1.930;2024-02-16T01:55:07;1.90;;;1.28;;
60641;SDS011;46837;52.446;-1.930;2024-02-16T01:56:07;2.56;;;1.54;;
60641;SDS011;46837;52.446;-1.930;2024-02-16T01:57:07;4.54;;;1.24;;
60641;SDS011;46837;52.446;-1.930;2024-02-16T01:58:07;2.52;;;1.26;;
60641;SDS011;46837;52.446;-1.930;2024-02-16T01:59:07;4.02;;;0.96;;
60641;SDS011;46837;52.446;-1.930;2024-02-16T02:00:08;2.38;;;1.24;;
60641;SDS011;46837;52.446;-1.930;2024-02-16T02:01:07;2.90;;;1.36;;
60641;SDS011;46837;52.446;-1.930;2024-02-16T02:02:07;1.66;;;1.46;;
60641;SDS011;46837;52.446;-1.930;2024-02-16T02:03:07;3.04;;;1.56;;
60641;SDS011;46837;52.446;-1.930;2024-02-16T02:04:07;1.86;;;1.52;;
60641;SDS011;46837;52.446;-1.930;2024-02-16T02:05:07;2.52;;;1.84;;
60641;SDS011;46837;52.446;-1.930;2024-02-16T02:06:07;2.64;;;1.12;;
60641;SDS011;46837;52.446;-1.930;2024-02-16T02:08:09;1.62;;;1.22;;
60641;SDS011;46837;52.446;-1.930;2024-02-16T02:09:07;1.54;;;1.38;;
60641;SDS011;46837;52.446;-1.930;2024-02-16T02:10:07;1.62;;;1.24;;
60641;SDS011;46837;52.446;-1.930;2024-02-16T02:11:07;4.58;;;1.66;;
60641;SDS011;46837;52.446;-1.930;2024-02-16T02:12:09;2.00;;;1.68;;
60641;SDS011;46837;52.446;-1.930;2024-02-16T02:13:07;4.68;;;1.30;;
60641;SDS011;46837;52.446;-1.930;2024-02-16T02:14:07;5.44;;;1.88;;
60641;SDS011;46837;52.446;-1.930;2024-02-16T02:15:07;3.04;;;1.88;;
60641;SDS011;46837;52.446;-1.930;2024-02-16T02:16:07;3.52;;;1.74;;
60641;SDS011;46837;52.446;-1.930;2024-02-16T02:17:07;3.74;;;2.18;;
60641;SDS011;46837;52.446;-1.930;2024-02-16T02:18:07;3.66;;;2.46;;
60641;SDS011;46837;52.446;-1.930;2024-02-16T02:19:07;1.96;;;1.80;;
60641;SDS011;46837;52.446;-1.930;2024-02-16T02:20:08;2.86;;;2.54;;
60641;SDS011;46837;52.446;-1.930;2024-02-16T02:21:07;3.24;;;2.62;;
60641;SDS011;46837;52.446;-1.930;2024-02-16T02:23:07;3.10;;;2.58;;
60641;SDS011;46837;52.446;-1.930;2024-02-16T02:24:07;2.30;;;2.08;;
60641;SDS011;46837;52.446;-1.930;2024-02-16T02:25:07;3.54;;;2.36;;
60641;SDS011;46837;52.446;-1.930;2024-02-16T02:26:07;4.22;;;1.70;;
60641;SDS011;46837;52.446;-1.930;2024-02-16T02:27:07;2.68;;;2.22;;
60641;SDS011;46837;52.446;-1.930;2024-02-16T02:28:07;2.86;;;2.04;;
60641;SDS011;46837;52.446;-1.930;2024-02-16T02:29:07;3.28;;;1.98;;
60641;SDS011;46837;52.446;-1.930;2024-02-16T02:30:07;5.92;;;2.88;;
60641;SDS011;46837;52.446;-1.930;2024-02-16T02:31:07;2.54;;;1.88;;
60641;SDS011;46837;52.446;-1.930;2024-02-16T02:32:07;2.04;;;1.80;;
60641;SDS011;46837;52.446;-1.930;2024-02-16T02:33:07;3.60;;;1.92;;
60641;SDS011;46837;52.446;-1.930;2024-02-16T02:34:07;1.96;;;1.76;;
60641;SDS011;46837;52.446;-1.930;2024-02-16T02:35:07;1.68;;;1.54;;
60641;SDS011;46837;52.446;-1.930;2024-02-16T02:36:07;2.78;;;2.14;;
60641;SDS011;46837;52.446;-1.930;2024-02-16T02:37:07;3.92;;;2.00;;
60641;SDS011;46837;52.446;-1.930;2024-02-16T02:38:07;2.62;;;2.00;;
60641;SDS011;46837;52.446;-1.930;2024-02-16T02:39:07;1.94;;;1.30;;
60641;SDS011;46837;52.446;-1.930;2024-02-16T02:40:09;1.92;;;1.08;;
60641;SDS011;46837;52.446;-1.930;2024-02-16T02:41:07;4.08;;;1.58;;
60641;SDS011;46837;52.446;-1.930;2024-02-16T02:42:07;2.10;;;1.48;;
60641;SDS011;46837;52.446;-1.930;2024-02-16T02:43:07;1.46;;;1.04;;
60641;SDS011;46837;52.446;-1.930;2024-02-16T02:44:07;1.96;;;1.00;;
60641;SDS011;46837;52.446;-1.930;2024-02-16T02:45:07;2.46;;;1.32;;
60641;SDS011;46837;52.446;-1.930;2024-02-16T02:46:07;1.88;;;1.18;;
60641;SDS011;46837;52.446;-1.930;2024-02-16T02:47:07;3.82;;;1.12;;
60641;SDS011;46837;52.446;-1.930;2024-02-16T02:48:07;2.34;;;0.92;;
60641;SDS011;46837;52.446;-1.930;2024-02-16T02:49:07;1.78;;;0.84;;
60641;SDS011;46837;52.446;-1.930;2024-02-16T02:50:07;1.94;;;0.88;;
60641;SDS011;46837;52.446;-1.930;2024-02-16T02:51:07;3.20;;;0.58;;
60641;SDS011;46837;52.446;-1.930;2024-02-16T02:52:07;3.14;;;0.90;;
60641;SDS011;46837;52.446;-1.930;2024-02-16T02:53:07;1.86;;;0.90;;
60641;SDS011;46837;52.446;-1.930;2024-02-16T02:54:07;0.90;;;0.60;;
60641;SDS011;46837;52.446;-1.930;2024-02-16T02:55:07;1.40;;;0.72;;
60641;SDS011;46837;52.446;-1.930;2024-02-16T02:56:07;0.70;;;0.46;;
60641;SDS011;46837;52.446;-1.930;2024-02-16T02:57:07;0.90;;;0.60;;
60641;SDS011;46837;52.446;-1.930;2024-02-16T02:58:07;1.58;;;0.64;;
60641;SDS011;46837;52.446;-1.930;2024-02-16T02:59:07;0.52;;;0.46;;
60641;SDS011;46837;52.446;-1.930;2024-02-16T03:00:11;3.22;;;0.76;;
60641;SDS011;46837;52.446;-1.930;2024-02-16T03:01:08;2.26;;;0.84;;
60641;SDS011;46837;52.446;-1.930;2024-02-16T03:02:07;1.48;;;0.70;;
60641;SDS011;46837;52.446;-1.930;2024-02-16T03:03:07;1.10;;;0.66;;
60641;SDS011;46837;52.446;-1.930;2024-02-16T03:04:07;3.26;;;0.48;;
60641;SDS011;46837;52.446;-1.930;2024-02-16T03:05:07;3.96;;;1.32;;
60641;SDS011;46837;52.446;-1.930;2024-02-16T03:06:07;1.92;;;0.86;;
60641;SDS011;46837;52.446;-1.930;2024-02-16T03:07:07;2.28;;;1.12;;
60641;SDS011;46837;52.446;-1.930;2024-02-16T03:08:07;2.20;;;1.04;;
60641;SDS011;46837;52.446;-1.930;2024-02-16T03:09:07;4.18;;;1.00;;
60641;SDS011;46837;52.446;-1.930;2024-02-16T03:10:07;2.98;;;0.54;;
60641;SDS011;46837;52.446;-1.930;2024-02-16T03:11:07;1.56;;;0.82;;
60641;SDS011;46837;52.446;-1.930;2024-02-16T03:12:07;1.74;;;1.02;;
60641;SDS011;46837;52.446;-1.930;2024-02-16T03:13:07;1.02;;;0.86;;
60641;SDS011;46837;52.446;-1.930;2024-02-16T03:14:07;1.42;;;0.72;;
60641;SDS011;46837;52.446;-1.930;2024-02-16T03:15:07;2.42;;;0.70;;
60641;SDS011;46837;52.446;-1.930;2024-02-16T03:16:07;2.64;;;0.68;;
60641;SDS011;46837;52.446;-1.930;2024-02-16T03:17:07;2.02;;;0.76;;
60641;SDS011;46837;52.446;-1.930;2024-02-16T03:18:09;1.06;;;0.68;;
60641;SDS011;46837;52.446;-1.930;2024-02-16T03:19:07;2.24;;;0.70;;
60641;SDS011;46837;52.446;-1.930;2024-02-16T03:20:07;1.36;;;0.84;;
60641;SDS011;46837;52.446;-1.930;2024-02-16T03:21:07;1.58;;;0.78;;
60641;SDS011;46837;52.446;-1.930;2024-02-16T03:22:07;0.40;;;0.40;;
60641;SDS011;46837;52.446;-1.930;2024-02-16T03:23:07;1.42;;;0.72;;
60641;SDS011;46837;52.446;-1.930;2024-02-16T03:24:07;2.10;;;0.74;;
60641;SDS011;46837;52.446;-1.930;2024-02-16T03:25:07;1.54;;;0.66;;
60641;SDS011;46837;52.446;-1.930;2024-02-16T03:26:13;0.50;;;0.50;;
60641;SDS011;46837;52.446;-1.930;2024-02-16T03:27:07;2.22;;;1.40;;
60641;SDS011;46837;52.446;-1.930;2024-02-16T03:28:11;0.78;;;0.66;;
60641;SDS011;46837;52.446;-1.930;2024-02-16T03:29:07;2.90;;;1.00;;
60641;SDS011;46837;52.446;-1.930;2024-02-16T03:30:07;2.20;;;1.00;;
60641;SDS011;46837;52.446;-1.930;2024-02-16T03:31:07;1.46;;;0.80;;
60641;SDS011;46837;52.446;-1.930;2024-02-16T03:32:07;3.00;;;1.20;;
60641;SDS011;46837;52.446;-1.930;2024-02-16T03:33:07;1.80;;;0.78;;
60641;SDS011;46837;52.446;-1.930;2024-02-16T03:34:07;2.50;;;1.04;;
60641;SDS011;46837;52.446;-1.930;2024-02-16T03:35:07;2.36;;;1.24;;
60641;SDS011;46837;52.446;-1.930;2024-02-16T03:36:07;1.30;;;1.16;;
60641;SDS011;46837;52.446;-1.930;2024-02-16T03:37:07;2.36;;;1.12;;
60641;SDS011;46837;52.446;-1.930;2024-02-16T03:38:07;4.26;;;1.26;;
60641;SDS011;46837;52.446;-1.930;2024-02-16T03:39:07;1.20;;;0.74;;
60641;SDS011;46837;52.446;-1.930;2024-02-16T03:40:07;3.08;;;1.00;;
60641;SDS011;46837;52.446;-1.930;2024-02-16T03:41:07;2.44;;;1.00;;
60641;SDS011;46837;52.446;-1.930;2024-02-16T03:42:07;2.70;;;0.84;;
60641;SDS011;46837;52.446;-1.930;2024-02-16T03:43:07;0.66;;;0.56;;
60641;SDS011;46837;52.446;-1.930;2024-02-16T03:44:07;1.44;;;0.52;;
60641;SDS011;46837;52.446;-1.930;2024-02-16T03:45:07;1.64;;;0.72;;
60641;SDS011;46837;52.446;-1.930;2024-02-16T03:46:07;2.36;;;1.24;;
60641;SDS011;46837;52.446;-1.930;2024-02-16T03:47:07;1.26;;;0.96;;
60641;SDS011;46837;52.446;-1.930;2024-02-16T03:48:07;1.06;;;0.46;;
60641;SDS011;46837;52.446;-1.930;2024-02-16T03:49:07;6.56;;;0.84;;
60641;SDS011;46837;52.446;-1.930;2024-02-16T03:50:07;2.08;;;0.76;;
60641;SDS011;46837;52.446;-1.930;2024-02-16T03:51:07;1.18;;;0.76;;
60641;SDS011;46837;52.446;-1.930;2024-02-16T03:52:07;1.30;;;0.96;;
60641;SDS011;46837;52.446;-1.930;2024-02-16T03:53:07;1.36;;;0.96;;
60641;SDS011;46837;52.446;-1.930;2024-02-16T03:54:07;1.92;;;0.58;;
60641;SDS011;46837;52.446;-1.930;2024-02-16T03:55:07;1.54;;;0.78;;
60641;SDS011;46837;52.446;-1.930;2024-02-16T03:56:07;2.16;;;0.68;;
60641;SDS011;46837;52.446;-1.930;2024-02-16T03:57:10;2.48;;;0.96;;
60641;SDS011;46837;52.446;-1.930;2024-02-16T03:58:07;0.94;;;0.62;;
60641;SDS011;46837;52.446;-1.930;2024-02-16T03:59:07;2.10;;;0.88;;
60641;SDS011;46837;52.446;-1.930;2024-02-16T04:00:07;7.30;;;1.22;;
60641;SDS011;46837;52.446;-1.930;2024-02-16T04:01:08;2.24;;;1.10;;
60641;SDS011;46837;52.446;-1.930;2024-02-16T04:02:07;4.02;;;1.46;;
60641;SDS011;46837;52.446;-1.930;2024-02-16T04:03:07;2.14;;;0.78;;
60641;SDS011;46837;52.446;-1.930;2024-02-16T04:04:07;3.36;;;1.16;;
60641;SDS011;46837;52.446;-1.930;2024-02-16T04:05:07;1.22;;;0.80;;
60641;SDS011;46837;52.446;-1.930;2024-02-16T04:06:07;1.72;;;0.60;;
60641;SDS011;46837;52.446;-1.930;2024-02-16T04:07:07;1.44;;;0.72;;
60641;SDS011;46837;52.446;-1.930;2024-02-16T04:08:07;1.84;;;0.78;;
60641;SDS011;46837;52.446;-1.930;2024-02-16T04:09:09;2.06;;;1.74;;
60641;SDS011;46837;52.446;-1.930;2024-02-16T04:10:07;2.20;;;0.94;;
60641;SDS011;46837;52.446;-1.930;2024-02-16T04:11:07;1.52;;;0.92;;
60641;SDS011;46837;52.446;-1.930;2024-02-16T04:12:07;1.46;;;0.90;;
60641;SDS011;46837;52.446;-1.930;2024-02-16T04:13:07;4.50;;;1.30;;
60641;SDS011;46837;52.446;-1.930;2024-02-16T04:14:07;1.42;;;1.24;;
60641;SDS011;46837;52.446;-1.930;2024-02-16T04:15:07;0.98;;;0.96;;
60641;SDS011;46837;52.446;-1.930;2024-02-16T04:16:07;1.78;;;1.10;;
60641;SDS011;46837;52.446;-1.930;2024-02-16T04:17:07;1.72;;;1.28;;
60641;SDS011;46837;52.446;-1.930;2024-02-16T04:18:07;3.66;;;1.16;;
60641;SDS011;46837;52.446;-1.930;2024-02-16T04:19:07;3.60;;;1.40;;
60641;SDS011;46837;52.446;-1.930;2024-02-16T04:20:07;1.86;;;1.18;;
60641;SDS011;46837;52.446;-1.930;2024-02-16T04:21:07;2.58;;;1.20;;
60641;SDS011;46837;52.446;-1.930;2024-02-16T04:22:07;2.04;;;1.58;;
60641;SDS011;46837;52.446;-1.930;2024-02-16T04:23:07;4.94;;;1.80;;
60641;SDS011;46837;52.446;-1.930;2024-02-16T04:24:07;2.92;;;1.74;;
60641;SDS011;46837;52.446;-1.930;2024-02-16T04:25:07;3.52;;;1.78;;
60641;SDS011;46837;52.446;-1.930;2024-02-16T04:26:07;3.06;;;1.72;;
60641;SDS011;46837;52.446;-1.930;2024-02-16T04:27:07;3.80;;;1.66;;
60641;SDS011;46837;52.446;-1.930;2024-02-16T04:28:07;3.62;;;1.72;;
60641;SDS011;46837;52.446;-1.930;2024-02-16T04:29:07;3.16;;;2.28;;
60641;SDS011;46837;52.446;-1.930;2024-02-16T04:30:07;5.70;;;2.00;;
60641;SDS011;46837;52.446;-1.930;2024-02-16T04:31:07;3.26;;;1.92;;
60641;SDS011;46837;52.446;-1.930;2024-02-16T04:32:07;5.44;;;2.14;;
60641;SDS011;46837;52.446;-1.930;2024-02-16T04:33:07;9.34;;;2.24;;
60641;SDS011;46837;52.446;-1.930;2024-02-16T04:34:07;4.98;;;2.70;;
60641;SDS011;46837;52.446;-1.930;2024-02-16T04:35:07;6.48;;;2.52;;
60641;SDS011;46837;52.446;-1.930;2024-02-16T04:36:07;6.28;;;2.02;;
60641;SDS011;46837;52.446;-1.930;2024-02-16T04:37:07;4.94;;;2.10;;
60641;SDS011;46837;52.446;-1.930;2024-02-16T04:38:07;4.20;;;2.36;;
60641;SDS011;46837;52.446;-1.930;2024-02-16T04:39:07;3.42;;;2.48;;
60641;SDS011;46837;52.446;-1.930;2024-02-16T04:40:07;4.20;;;2.22;;
60641;SDS011;46837;52.446;-1.930;2024-02-16T04:41:07;3.36;;;2.52;;
60641;SDS011;46837;52.446;-1.930;2024-02-16T04:42:07;3.90;;;2.42;;
60641;SDS011;46837;52.446;-1.930;2024-02-16T04:43:07;7.92;;;2.66;;
60641;SDS011;46837;52.446;-1.930;2024-02-16T04:44:07;4.14;;;2.44;;
60641;SDS011;46837;52.446;-1.930;2024-02-16T04:45:07;7.90;;;2.18;;
60641;SDS011;46837;52.446;-1.930;2024-02-16T04:46:07;3.92;;;3.20;;
60641;SDS011;46837;52.446;-1.930;2024-02-16T04:47:07;2.68;;;2.22;;
60641;SDS011;46837;52.446;-1.930;2024-02-16T04:48:07;3.42;;;2.86;;
60641;SDS011;46837;52.446;-1.930;2024-02-16T04:49:07;4.16;;;2.66;;
60641;SDS011;46837;52.446;-1.930;2024-02-16T04:50:07;5.42;;;2.86;;
60641;SDS011;46837;52.446;-1.930;2024-02-16T04:51:07;9.08;;;3.12;;
60641;SDS011;46837;52.446;-1.930;2024-02-16T04:52:07;7.90;;;3.24;;
60641;SDS011;46837;52.446;-1.930;2024-02-16T04:53:07;7.46;;;3.48;;
60641;SDS011;46837;52.446;-1.930;2024-02-16T04:54:07;4.36;;;2.66;;
60641;SDS011;46837;52.446;-1.930;2024-02-16T04:55:07;6.54;;;3.36;;
60641;SDS011;46837;52.446;-1.930;2024-02-16T04:56:07;8.12;;;3.36;;
60641;SDS011;46837;52.446;-1.930;2024-02-16T04:57:07;10.40;;;3.18;;
60641;SDS011;46837;52.446;-1.930;2024-02-16T04:58:10;4.24;;;2.82;;
60641;SDS011;46837;52.446;-1.930;2024-02-16T04:59:07;4.22;;;2.64;;
60641;SDS011;46837;52.446;-1.930;2024-02-16T05:00:07;4.54;;;2.60;;
60641;SDS011;46837;52.446;-1.930;2024-02-16T05:01:07;4.78;;;2.90;;
60641;SDS011;46837;52.446;-1.930;2024-02-16T05:02:07;5.76;;;3.00;;
60641;SDS011;46837;52.446;-1.930;2024-02-16T05:03:07;7.14;;;2.94;;
60641;SDS011;46837;52.446;-1.930;2024-02-16T05:04:07;3.86;;;2.82;;
60641;SDS011;46837;52.446;-1.930;2024-02-16T05:05:07;4.58;;;3.22;;
60641;SDS011;46837;52.446;-1.930;2024-02-16T05:06:07;3.52;;;2.84;;
60641;SDS011;46837;52.446;-1.930;2024-02-16T05:07:07;3.94;;;2.66;;
60641;SDS011;46837;52.446;-1.930;2024-02-16T05:08:07;14.28;;;3.56;;
60641;SDS011;46837;52.446;-1.930;2024-02-16T05:09:07;6.90;;;3.10;;
60641;SDS011;46837;52.446;-1.930;2024-02-16T05:10:09;6.34;;;4.18;;
60641;SDS011;46837;52.446;-1.930;2024-02-16T05:11:08;10.24;;;3.46;;
60641;SDS011;46837;52.446;-1.930;2024-02-16T05:12:07;6.76;;;3.66;;
60641;SDS011;46837;52.446;-1.930;2024-02-16T05:13:07;8.82;;;3.02;;
60641;SDS011;46837;52.446;-1.930;2024-02-16T05:14:07;5.36;;;3.40;;
60641;SDS011;46837;52.446;-1.930;2024-02-16T05:15:07;7.40;;;3.54;;
60641;SDS011;46837;52.446;-1.930;2024-02-16T05:16:09;5.18;;;2.82;;
60641;SDS011;46837;52.446;-1.930;2024-02-16T05:17:07;10.56;;;3.16;;
60641;SDS011;46837;52.446;-1.930;2024-02-16T05:18:07;7.72;;;3.24;;
60641;SDS011;46837;52.446;-1.930;2024-02-16T05:19:07;9.00;;;3.24;;
60641;SDS011;46837;52.446;-1.930;2024-02-16T05:21:07;5.42;;;3.04;;
60641;SDS011;46837;52.446;-1.930;2024-02-16T05:22:07;4.96;;;3.06;;
60641;SDS011;46837;52.446;-1.930;2024-02-16T05:23:07;5.94;;;3.14;;
60641;SDS011;46837;52.446;-1.930;2024-02-16T05:24:07;8.78;;;3.66;;
60641;SDS011;46837;52.446;-1.930;2024-02-16T05:25:07;5.88;;;3.00;;
60641;SDS011;46837;52.446;-1.930;2024-02-16T05:26:07;10.88;;;4.04;;
60641;SDS011;46837;52.446;-1.930;2024-02-16T05:27:07;8.18;;;3.08;;
60641;SDS011;46837;52.446;-1.930;2024-02-16T05:28:07;5.50;;;2.64;;
60641;SDS011;46837;52.446;-1.930;2024-02-16T05:29:07;6.56;;;3.02;;
60641;SDS011;46837;52.446;-1.930;2024-02-16T05:30:11;5.68;;;2.62;;
60641;SDS011;46837;52.446;-1.930;2024-02-16T05:31:12;9.86;;;2.88;;
60641;SDS011;46837;52.446;-1.930;2024-02-16T05:32:07;6.44;;;2.54;;
60641;SDS011;46837;52.446;-1.930;2024-02-16T05:33:07;7.18;;;2.68;;
60641;SDS011;46837;52.446;-1.930;2024-02-16T05:34:07;7.84;;;3.38;;
60641;SDS011;46837;52.446;-1.930;2024-02-16T05:35:11;10.18;;;3.04;;
60641;SDS011;46837;52.446;-1.930;2024-02-16T05:36:07;8.10;;;3.30;;
60641;SDS011;46837;52.446;-1.930;2024-02-16T05:37:07;9.46;;;2.94;;
60641;SDS011;46837;52.446;-1.930;2024-02-16T05:38:11;4.10;;;2.34;;
60641;SDS011;46837;52.446;-1.930;2024-02-16T05:39:11;7.74;;;3.04;;
60641;SDS011;46837;52.446;-1.930;2024-02-16T05:40:13;9.38;;;3.58;;
60641;SDS011;46837;52.446;-1.930;2024-02-16T05:41:07;7.16;;;3.36;;
60641;SDS011;46837;52.446;-1.930;2024-02-16T05:42:07;10.16;;;3.32;;
60641;SDS011;46837;52.446;-1.930;2024-02-16T05:43:07;3.92;;;3.06;;
60641;SDS011;46837;52.446;-1.930;2024-02-16T05:44:07;6.18;;;3.44;;
60641;SDS011;46837;52.446;-1.930;2024-02-16T05:45:07;4.50;;;2.56;;
60641;SDS011;46837;52.446;-1.930;2024-02-16T05:46:12;9.40;;;3.24;;
60641;SDS011;46837;52.446;-1.930;2024-02-16T05:47:07;11.06;;;3.66;;
60641;SDS011;46837;52.446;-1.930;2024-02-16T05:48:07;3.82;;;2.62;;
60641;SDS011;46837;52.446;-1.930;2024-02-16T05:49:07;3.88;;;3.16;;
60641;SDS011;46837;52.446;-1.930;2024-02-16T05:50:07;9.18;;;3.14;;
60641;SDS011;46837;52.446;-1.930;2024-02-16T05:51:07;9.02;;;3.12;;
60641;SDS011;46837;52.446;-1.930;2024-02-16T05:52:11;6.00;;;3.22;;
60641;SDS011;46837;52.446;-1.930;2024-02-16T05:53:07;6.34;;;3.36;;
60641;SDS011;46837;52.446;-1.930;2024-02-16T05:54:07;6.42;;;2.92;;
60641;SDS011;46837;52.446;-1.930;2024-02-16T05:55:07;7.54;;;3.58;;
60641;SDS011;46837;52.446;-1.930;2024-02-16T05:56:07;6.98;;;2.76;;
60641;SDS011;46837;52.446;-1.930;2024-02-16T05:57:07;14.92;;;3.04;;
60641;SDS011;46837;52.446;-1.930;2024-02-16T05:58:07;7.68;;;3.38;;